Time;durP1;ratioP1;P1;durP2;ratioP2;P2;SDS_P1;SDS_P2;PMS_P1;PMS_P2;Temp;Humidity;BMP_temperature;BMP_pressure;BME280_temperature;BME280_humidity;BME280_pressure;Samples;Min_cycle;Max_cycle;Signal;HPM_P1;HPM_P2
2023/12/23 00:00:48;;;;;;;16.38;2.13;;;;;;;;;;5096746;27;20097;-62
2023/12/23 00:03:15;;;;;;;25.90;3.67;;;;;;;;;;5100353;27;20379;-62
2023/12/23 00:05:42;;;;;;;23.60;3.50;;;;;;;;;;5118209;27;20043;-62
2023/12/23 00:08:08;;;;;;;21.00;3.20;;;;;;;;;;5122085;27;20161;-62
2023/12/23 00:10:35;;;;;;;16.90;3.22;;;;;;;;;;5094999;27;20050;-62
2023/12/23 00:13:01;;;;;;;15.25;2.90;;;;;;;;;;5118268;27;20537;-62
2023/12/23 00:15:27;;;;;;;16.13;2.00;;;;;;;;;;5116795;27;20046;-62
2023/12/23 00:17:53;;;;;;;22.90;2.83;;;;;;;;;;5099436;27;20043;-62
2023/12/23 00:20:19;;;;;;;18.35;3.42;;;;;;;;;;5098068;27;20051;-62
2023/12/23 00:22:46;;;;;;;19.23;2.95;;;;;;;;;;5117371;27;20134;-62
2023/12/23 00:25:12;;;;;;;24.80;4.20;;;;;;;;;;5117415;27;20044;-62
2023/12/23 00:27:38;;;;;;;17.02;3.08;;;;;;;;;;5099776;27;20047;-62
2023/12/23 00:30:04;;;;;;;25.40;3.10;;;;;;;;;;5099455;27;20062;-62
2023/12/23 00:32:31;;;;;;;23.15;3.65;;;;;;;;;;5117947;27;20376;-62
2023/12/23 00:34:57;;;;;;;23.15;3.47;;;;;;;;;;5116427;27;20035;-62
2023/12/23 00:37:23;;;;;;;25.38;5.65;;;;;;;;;;5116094;27;20051;-62
2023/12/23 00:39:49;;;;;;;18.40;3.65;;;;;;;;;;5093410;27;20040;-62
2023/12/23 00:42:16;;;;;;;22.40;5.65;;;;;;;;;;5118189;27;20055;-62
2023/12/23 00:44:42;;;;;;;19.10;3.33;;;;;;;;;;5097008;27;20077;-62
2023/12/23 00:47:08;;;;;;;29.83;3.83;;;;;;;;;;5095622;27;20040;-62
2023/12/23 00:49:35;;;;;;;26.05;3.85;;;;;;;;;;5118661;27;20059;-62
2023/12/23 00:52:01;;;;;;;27.45;4.57;;;;;;;;;;5119336;27;20576;-62
2023/12/23 00:54:27;;;;;;;29.90;4.15;;;;;;;;;;5117452;27;20039;-62
2023/12/23 00:56:53;;;;;;;26.23;3.97;;;;;;;;;;5116617;27;20069;-62
2023/12/23 00:59:19;;;;;;;22.65;3.47;;;;;;;;;;5095741;27;20099;-62
2023/12/23 01:01:45;;;;;;;21.77;3.22;;;;;;;;;;5098035;27;20071;-62
2023/12/23 01:04:12;;;;;;;20.65;3.50;;;;;;;;;;5094299;27;20143;-62
2023/12/23 01:06:38;;;;;;;28.65;3.53;;;;;;;;;;5097755;27;20066;-62
2023/12/23 01:09:04;;;;;;;18.17;3.15;;;;;;;;;;5121031;27;20040;-62
2023/12/23 01:11:31;;;;;;;31.42;4.85;;;;;;;;;;5100358;27;20695;-62
2023/12/23 01:13:57;;;;;;;22.17;3.22;;;;;;;;;;5117161;27;20084;-62
2023/12/23 01:16:23;;;;;;;25.92;4.88;;;;;;;;;;5099785;27;20039;-62
2023/12/23 01:18:49;;;;;;;28.83;4.13;;;;;;;;;;5098706;27;20154;-62
2023/12/23 01:21:18;;;;;;;23.95;5.03;;;;;;;;;;5097855;27;20450;-62
2023/12/23 01:23:44;;;;;;;22.08;2.83;;;;;;;;;;5120412;27;20084;-62
2023/12/23 01:26:10;;;;;;;54.60;6.75;;;;;;;;;;5117447;27;20051;-62
2023/12/23 01:28:36;;;;;;;27.23;4.45;;;;;;;;;;5114287;27;20070;-62
2023/12/23 01:31:03;;;;;;;18.58;3.90;;;;;;;;;;5098953;27;20062;-62
2023/12/23 01:33:29;;;;;;;18.52;2.67;;;;;;;;;;5126386;27;20439;-62
2023/12/23 01:35:55;;;;;;;15.02;2.58;;;;;;;;;;5120405;27;20047;-62
2023/12/23 01:38:21;;;;;;;23.30;3.60;;;;;;;;;;5098872;27;20047;-62
2023/12/23 01:40:48;;;;;;;25.90;3.67;;;;;;;;;;5117241;27;20100;-62
2023/12/23 01:43:14;;;;;;;25.80;3.85;;;;;;;;;;5095325;27;20047;-62
2023/12/23 01:45:40;;;;;;;17.35;2.45;;;;;;;;;;5116873;27;22028;-62
2023/12/23 01:48:08;;;;;;;18.10;2.05;;;;;;;;;;5099503;27;20039;-62
2023/12/23 01:50:35;;;;;;;20.50;2.15;;;;;;;;;;5121693;27;20043;-62
2023/12/23 01:53:01;;;;;;;12.65;2.03;;;;;;;;;;5115364;27;20126;-62
2023/12/23 01:55:28;;;;;;;13.70;2.13;;;;;;;;;;5117583;27;20087;-62
2023/12/23 01:57:54;;;;;;;14.60;2.30;;;;;;;;;;5099148;27;20482;-62
2023/12/23 02:00:22;;;;;;;17.40;2.88;;;;;;;;;;5100274;27;21854;-62
2023/12/23 02:02:48;;;;;;;12.75;1.98;;;;;;;;;;5092943;27;20051;-62
2023/12/23 02:05:15;;;;;;;20.75;2.55;;;;;;;;;;5098763;27;20559;-62
2023/12/23 02:07:45;;;;;;;17.60;2.28;;;;;;;;;;5116577;27;20055;-62
2023/12/23 02:10:11;;;;;;;9.90;2.08;;;;;;;;;;5114319;27;20052;-62
2023/12/23 02:12:44;;;;;;;12.95;1.52;;;;;;;;;;5096792;27;20039;-62
2023/12/23 02:15:12;;;;;;;16.23;3.80;;;;;;;;;;5102229;27;20123;-62
2023/12/23 02:17:39;;;;;;;17.23;2.95;;;;;;;;;;5103484;27;20074;-62
2023/12/23 02:20:05;;;;;;;12.38;1.60;;;;;;;;;;5095396;27;20474;-62
2023/12/23 02:22:31;;;;;;;13.60;2.05;;;;;;;;;;5118622;27;20487;-62
2023/12/23 02:24:58;;;;;;;19.33;3.22;;;;;;;;;;5099672;28;20118;-62
2023/12/23 02:27:29;;;;;;;14.80;1.52;;;;;;;;;;5100992;27;20463;-62
2023/12/23 02:29:56;;;;;;;14.65;2.35;;;;;;;;;;5119516;27;20106;-62
2023/12/23 02:32:23;;;;;;;27.55;2.65;;;;;;;;;;5117459;27;20081;-62
2023/12/23 02:34:49;;;;;;;17.95;2.67;;;;;;;;;;5095203;27;20035;-62
2023/12/23 02:37:16;;;;;;;16.48;2.20;;;;;;;;;;5096756;27;20472;-62
2023/12/23 02:39:42;;;;;;;11.85;2.30;;;;;;;;;;5113257;27;20080;-62
2023/12/23 02:42:08;;;;;;;13.02;1.77;;;;;;;;;;5097203;27;20052;-62
2023/12/23 02:44:34;;;;;;;10.20;2.55;;;;;;;;;;5098004;27;20359;-62
2023/12/23 02:47:00;;;;;;;15.13;2.08;;;;;;;;;;5113912;27;20043;-62
2023/12/23 02:49:26;;;;;;;15.05;1.83;;;;;;;;;;5119085;27;20444;-62
2023/12/23 02:51:53;;;;;;;21.33;2.28;;;;;;;;;;5102488;27;20047;-62
2023/12/23 02:54:19;;;;;;;18.92;1.90;;;;;;;;;;5101111;27;20039;-62
2023/12/23 02:56:45;;;;;;;14.25;1.80;;;;;;;;;;5086257;28;20047;-62
2023/12/23 02:59:11;;;;;;;20.27;2.63;;;;;;;;;;5101785;28;20043;-62
2023/12/23 03:01:37;;;;;;;21.02;2.22;;;;;;;;;;5099974;28;20043;-62
2023/12/23 03:04:04;;;;;;;17.13;2.42;;;;;;;;;;5122616;28;20077;-62
2023/12/23 03:06:30;;;;;;;19.00;2.47;;;;;;;;;;5114197;27;20537;-62
2023/12/23 03:08:56;;;;;;;17.05;2.30;;;;;;;;;;5116351;27;20701;-62
2023/12/23 03:11:22;;;;;;;20.35;3.75;;;;;;;;;;5100036;27;20067;-62
2023/12/23 03:13:48;;;;;;;18.38;2.45;;;;;;;;;;5099915;27;20097;-62
2023/12/23 03:16:16;;;;;;;15.80;1.95;;;;;;;;;;5119481;27;20051;-62
2023/12/23 03:18:43;;;;;;;18.67;2.17;;;;;;;;;;5119279;27;20128;-62
2023/12/23 03:21:09;;;;;;;15.70;1.77;;;;;;;;;;5118323;27;20040;-62
2023/12/23 03:23:35;;;;;;;20.77;1.75;;;;;;;;;;5117817;27;20078;-62
2023/12/23 03:26:02;;;;;;;21.90;2.67;;;;;;;;;;5101861;27;20069;-62
2023/12/23 03:28:28;;;;;;;17.88;2.08;;;;;;;;;;5102267;27;20043;-62
2023/12/23 03:30:54;;;;;;;23.30;2.50;;;;;;;;;;5108118;27;20058;-62
2023/12/23 03:33:20;;;;;;;12.68;1.50;;;;;;;;;;5105350;27;20138;-62
2023/12/23 03:35:46;;;;;;;19.08;1.88;;;;;;;;;;5098546;27;20043;-62
2023/12/23 03:38:13;;;;;;;11.25;1.60;;;;;;;;;;5121625;27;20479;-62
2023/12/23 03:40:39;;;;;;;15.60;1.92;;;;;;;;;;5119304;27;20117;-62
2023/12/23 03:43:05;;;;;;;17.80;1.63;;;;;;;;;;5099318;27;20038;-62
2023/12/23 03:45:31;;;;;;;11.23;1.80;;;;;;;;;;5120124;27;20482;-62
2023/12/23 03:47:57;;;;;;;13.38;1.67;;;;;;;;;;5119739;27;20046;-62
2023/12/23 03:50:23;;;;;;;11.93;2.15;;;;;;;;;;5100694;27;20072;-62
2023/12/23 03:52:50;;;;;;;12.40;2.08;;;;;;;;;;5101188;27;20096;-62
2023/12/23 03:55:16;;;;;;;13.00;2.17;;;;;;;;;;5117791;27;20095;-62
2023/12/23 03:57:44;;;;;;;13.90;1.77;;;;;;;;;;5101077;27;20581;-62
2023/12/23 04:00:10;;;;;;;14.43;3.33;;;;;;;;;;5118947;27;20103;-62
2023/12/23 04:02:37;;;;;;;14.05;2.03;;;;;;;;;;5102386;27;20059;-62
2023/12/23 04:05:04;;;;;;;15.73;2.20;;;;;;;;;;5121225;27;20031;-62
2023/12/23 04:07:30;;;;;;;18.17;2.15;;;;;;;;;;5097417;27;20055;-62
2023/12/23 04:09:56;;;;;;;15.20;1.98;;;;;;;;;;5119245;27;20044;-62
2023/12/23 04:12:22;;;;;;;21.63;2.92;;;;;;;;;;5118664;27;20431;-62
2023/12/23 04:14:48;;;;;;;15.40;2.40;;;;;;;;;;5122624;27;20108;-62
2023/12/23 04:17:15;;;;;;;18.25;2.25;;;;;;;;;;5124248;27;20086;-62
2023/12/23 04:19:41;;;;;;;14.70;2.17;;;;;;;;;;5120462;27;20049;-62
2023/12/23 04:22:07;;;;;;;11.88;1.88;;;;;;;;;;5101946;27;20050;-62
2023/12/23 04:24:33;;;;;;;14.07;1.90;;;;;;;;;;5103551;27;20493;-62
2023/12/23 04:27:00;;;;;;;20.17;2.05;;;;;;;;;;5115993;27;20412;-63
2023/12/23 04:29:26;;;;;;;13.13;1.83;;;;;;;;;;5108142;27;20415;-62
2023/12/23 04:31:52;;;;;;;8.18;1.58;;;;;;;;;;5079438;28;20084;-62
2023/12/23 04:34:18;;;;;;;17.75;1.90;;;;;;;;;;5081025;28;20047;-62
2023/12/23 04:36:45;;;;;;;11.15;2.10;;;;;;;;;;5080700;28;20052;-62
2023/12/23 04:39:11;;;;;;;13.00;2.00;;;;;;;;;;5083882;28;20047;-62
2023/12/23 04:41:37;;;;;;;13.35;1.98;;;;;;;;;;5080598;28;20115;-62
2023/12/23 04:44:04;;;;;;;20.77;2.67;;;;;;;;;;5099929;28;20066;-61
2023/12/23 04:46:30;;;;;;;16.17;2.80;;;;;;;;;;5098650;28;20090;-62
2023/12/23 04:48:56;;;;;;;11.07;3.13;;;;;;;;;;5101749;28;20104;-62
2023/12/23 04:51:22;;;;;;;10.75;2.78;;;;;;;;;;5099428;28;20035;-62
2023/12/23 04:53:49;;;;;;;9.82;2.60;;;;;;;;;;5080419;28;20050;-62
2023/12/23 04:56:15;;;;;;;8.27;2.33;;;;;;;;;;5081234;28;20094;-62
2023/12/23 04:58:41;;;;;;;9.52;2.15;;;;;;;;;;5099966;28;20040;-62
2023/12/23 05:01:07;;;;;;;6.82;1.80;;;;;;;;;;5101433;28;20096;-62
2023/12/23 05:03:34;;;;;;;9.43;2.03;;;;;;;;;;5098210;28;20043;-62
2023/12/23 05:06:00;;;;;;;7.10;1.80;;;;;;;;;;5098208;28;20108;-62
2023/12/23 05:08:27;;;;;;;6.60;2.05;;;;;;;;;;5081604;28;20052;-62
2023/12/23 05:10:53;;;;;;;6.18;1.67;;;;;;;;;;5098106;28;20047;-62
2023/12/23 05:13:19;;;;;;;4.55;1.63;;;;;;;;;;5079291;28;20051;-62
2023/12/23 05:15:45;;;;;;;4.40;1.33;;;;;;;;;;5102148;28;20484;-62
2023/12/23 05:18:12;;;;;;;3.83;1.48;;;;;;;;;;5082406;28;20130;-62
2023/12/23 05:20:38;;;;;;;7.35;1.70;;;;;;;;;;5100619;28;20051;-62
2023/12/23 05:23:04;;;;;;;4.95;1.42;;;;;;;;;;5101708;28;20051;-62
2023/12/23 05:25:30;;;;;;;4.05;1.30;;;;;;;;;;5082348;28;20044;-62
2023/12/23 05:27:57;;;;;;;7.57;1.60;;;;;;;;;;5095758;28;20090;-62
2023/12/23 05:30:23;;;;;;;4.47;1.38;;;;;;;;;;5084268;28;20479;-62
2023/12/23 05:32:49;;;;;;;4.30;1.40;;;;;;;;;;5094551;28;20055;-62
2023/12/23 05:35:15;;;;;;;5.10;1.42;;;;;;;;;;5094653;28;20118;-62
2023/12/23 05:37:41;;;;;;;8.38;1.75;;;;;;;;;;5087009;28;20043;-62
2023/12/23 05:40:09;;;;;;;7.22;2.10;;;;;;;;;;5097271;28;20130;-62
2023/12/23 05:42:35;;;;;;;6.38;1.55;;;;;;;;;;5098535;27;20054;-62
2023/12/23 05:45:01;;;;;;;7.07;1.63;;;;;;;;;;5098255;28;20100;-62
2023/12/23 05:47:29;;;;;;;7.47;1.40;;;;;;;;;;5098601;28;20565;-62
2023/12/23 05:49:57;;;;;;;4.07;1.30;;;;;;;;;;5094352;27;20322;-62
2023/12/23 05:52:23;;;;;;;6.47;1.30;;;;;;;;;;5088305;28;20040;-62
2023/12/23 05:54:49;;;;;;;4.32;1.42;;;;;;;;;;5086614;28;20475;-62
2023/12/23 05:57:16;;;;;;;3.78;1.10;;;;;;;;;;5085600;28;20444;-62
2023/12/23 05:59:42;;;;;;;5.55;1.20;;;;;;;;;;5097996;28;20202;-61
2023/12/23 06:02:08;;;;;;;4.85;1.15;;;;;;;;;;5098255;28;20391;-62
2023/12/23 06:04:34;;;;;;;9.05;1.50;;;;;;;;;;5098613;28;20040;-62
2023/12/23 06:07:01;;;;;;;12.32;1.70;;;;;;;;;;5092342;28;20048;-62
2023/12/23 06:09:27;;;;;;;6.90;2.90;;;;;;;;;;5100106;28;20059;-62
2023/12/23 06:11:53;;;;;;;12.27;2.15;;;;;;;;;;5101869;28;20055;-62
2023/12/23 06:14:19;;;;;;;11.90;2.47;;;;;;;;;;5095911;28;20093;-62
2023/12/23 06:16:45;;;;;;;10.13;2.05;;;;;;;;;;5098705;28;20974;-62
2023/12/23 06:19:12;;;;;;;10.23;2.63;;;;;;;;;;5098364;28;20058;-62
2023/12/23 06:21:45;;;;;;;9.68;2.88;;;;;;;;;;5099122;28;20039;-62
2023/12/23 06:24:11;;;;;;;13.80;3.58;;;;;;;;;;5089874;28;20044;-62
2023/12/23 06:26:38;;;;;;;11.13;3.58;;;;;;;;;;5095500;28;20078;-62
2023/12/23 06:29:04;;;;;;;9.88;3.60;;;;;;;;;;5096741;27;20039;-62
2023/12/23 06:31:30;;;;;;;8.82;3.95;;;;;;;;;;5120946;27;20483;-62
2023/12/23 06:33:56;;;;;;;9.23;3.50;;;;;;;;;;5119521;27;20046;-62
2023/12/23 06:36:22;;;;;;;13.57;4.03;;;;;;;;;;5122576;27;20122;-62
2023/12/23 06:38:48;;;;;;;11.10;3.08;;;;;;;;;;5102340;27;20058;-62
2023/12/23 06:41:15;;;;;;;11.45;2.42;;;;;;;;;;5122711;27;20046;-62
2023/12/23 06:43:41;;;;;;;8.18;2.50;;;;;;;;;;5105428;28;20035;-62
2023/12/23 06:46:10;;;;;;;10.73;2.15;;;;;;;;;;5103625;27;20167;-62
2023/12/23 06:48:37;;;;;;;6.32;2.05;;;;;;;;;;5121409;27;20051;-62
2023/12/23 06:51:03;;;;;;;7.50;2.08;;;;;;;;;;5102734;27;20510;-62
2023/12/23 06:53:29;;;;;;;6.32;1.80;;;;;;;;;;5104283;28;20450;-62
2023/12/23 06:55:56;;;;;;;7.47;2.00;;;;;;;;;;5104949;27;20058;-62
2023/12/23 06:58:23;;;;;;;6.82;2.65;;;;;;;;;;5121040;27;20035;-63
2023/12/23 07:00:49;;;;;;;7.50;2.25;;;;;;;;;;5121924;27;20122;-62
2023/12/23 07:03:15;;;;;;;6.10;2.10;;;;;;;;;;5121145;28;20091;-63
2023/12/23 07:05:42;;;;;;;3.92;1.73;;;;;;;;;;5118118;28;20076;-62
2023/12/23 07:08:08;;;;;;;6.47;1.40;;;;;;;;;;5121191;28;20054;-62
2023/12/23 07:10:34;;;;;;;5.20;1.55;;;;;;;;;;5099047;28;20435;-62
2023/12/23 07:13:00;;;;;;;4.88;1.70;;;;;;;;;;5098274;28;20096;-62
2023/12/23 07:15:26;;;;;;;6.90;1.95;;;;;;;;;;5102821;28;20050;-62
2023/12/23 07:17:52;;;;;;;2.95;1.30;;;;;;;;;;5098546;28;20062;-62
2023/12/23 07:20:19;;;;;;;6.10;1.00;;;;;;;;;;5101813;28;20135;-62
2023/12/23 07:22:45;;;;;;;3.70;1.40;;;;;;;;;;5104245;28;20039;-62
2023/12/23 07:25:11;;;;;;;3.28;1.25;;;;;;;;;;5104449;28;20039;-62
2023/12/23 07:27:38;;;;;;;4.05;1.00;;;;;;;;;;5099457;28;20139;-62
2023/12/23 07:30:04;;;;;;;4.55;1.10;;;;;;;;;;5102787;28;20043;-62
2023/12/23 07:32:30;;;;;;;3.05;0.70;;;;;;;;;;5120419;28;20058;-62
2023/12/23 07:34:56;;;;;;;4.05;0.88;;;;;;;;;;5101859;28;20182;-63
2023/12/23 07:37:22;;;;;;;1.77;0.68;;;;;;;;;;5098558;28;20655;-62
2023/12/23 07:39:49;;;;;;;2.95;0.65;;;;;;;;;;5117061;28;20118;-61
2023/12/23 07:42:15;;;;;;;4.28;1.00;;;;;;;;;;5113667;28;20048;-62
2023/12/23 07:44:41;;;;;;;2.95;0.80;;;;;;;;;;5097241;28;20066;-62
2023/12/23 07:47:10;;;;;;;3.13;0.90;;;;;;;;;;5116570;28;20035;-62
2023/12/23 07:49:36;;;;;;;5.15;0.90;;;;;;;;;;5114216;28;20043;-62
2023/12/23 07:52:03;;;;;;;3.47;0.93;;;;;;;;;;5097255;28;20550;-63
2023/12/23 07:54:29;;;;;;;2.67;0.73;;;;;;;;;;5099659;28;20499;-63
2023/12/23 07:56:55;;;;;;;5.13;1.00;;;;;;;;;;5118175;27;20122;-64
2023/12/23 07:59:21;;;;;;;4.93;1.13;;;;;;;;;;5103003;27;20043;-62
2023/12/23 08:01:47;;;;;;;6.40;1.85;;;;;;;;;;5116296;27;20428;-62
2023/12/23 08:04:14;;;;;;;4.20;1.35;;;;;;;;;;5122289;27;20118;-62
2023/12/23 08:06:41;;;;;;;4.93;2.05;;;;;;;;;;5119289;27;20035;-62
2023/12/23 08:09:07;;;;;;;5.70;1.60;;;;;;;;;;5101390;27;20031;-62
2023/12/23 08:11:34;;;;;;;2.80;1.50;;;;;;;;;;5102257;27;20042;-62
2023/12/23 08:14:02;;;;;;;6.15;3.22;;;;;;;;;;5102441;27;20110;-62
2023/12/23 08:16:28;;;;;;;7.43;2.40;;;;;;;;;;5099577;27;20139;-62
2023/12/23 08:18:55;;;;;;;6.78;2.53;;;;;;;;;;5100128;27;20104;-62
2023/12/23 08:21:21;;;;;;;10.13;6.82;;;;;;;;;;5102172;27;20148;-62
2023/12/23 08:23:48;;;;;;;3.72;2.15;;;;;;;;;;5080251;27;20043;-62
2023/12/23 08:26:14;;;;;;;12.27;6.22;;;;;;;;;;5119821;27;20458;-62
2023/12/23 08:28:40;;;;;;;4.28;1.80;;;;;;;;;;5123587;27;20047;-62
2023/12/23 08:31:06;;;;;;;4.88;1.30;;;;;;;;;;5118126;27;20050;-62
2023/12/23 08:33:33;;;;;;;3.97;1.88;;;;;;;;;;5102256;27;20047;-62
2023/12/23 08:36:00;;;;;;;2.97;1.10;;;;;;;;;;5098767;27;20108;-62
2023/12/23 08:38:26;;;;;;;5.50;0.80;;;;;;;;;;5082859;27;20074;-62
2023/12/23 08:40:52;;;;;;;2.47;0.93;;;;;;;;;;5122262;27;20142;-62
2023/12/23 08:43:18;;;;;;;3.00;0.70;;;;;;;;;;5102390;27;20035;-62
2023/12/23 08:45:45;;;;;;;3.42;0.95;;;;;;;;;;5099891;27;20085;-62
2023/12/23 08:48:11;;;;;;;3.45;1.70;;;;;;;;;;5099771;27;20108;-62
2023/12/23 08:50:37;;;;;;;4.22;2.20;;;;;;;;;;5100339;27;20047;-62
2023/12/23 08:53:03;;;;;;;4.70;2.20;;;;;;;;;;5100806;27;20156;-62
2023/12/23 08:55:29;;;;;;;4.07;2.05;;;;;;;;;;5116891;27;20469;-62
2023/12/23 08:57:56;;;;;;;7.60;5.68;;;;;;;;;;5116523;27;20035;-62
2023/12/23 09:00:22;;;;;;;4.82;2.97;;;;;;;;;;5119421;27;20032;-62
2023/12/23 09:02:48;;;;;;;6.70;4.18;;;;;;;;;;5102312;27;20042;-62
2023/12/23 09:05:14;;;;;;;3.20;1.63;;;;;;;;;;5100051;27;20133;-62
2023/12/23 09:07:41;;;;;;;3.85;1.67;;;;;;;;;;5102535;27;20370;-62
2023/12/23 09:10:08;;;;;;;4.40;2.05;;;;;;;;;;5103105;27;20118;-62
2023/12/23 09:12:35;;;;;;;3.20;1.30;;;;;;;;;;5102834;27;20118;-62
2023/12/23 09:15:03;;;;;;;4.25;2.47;;;;;;;;;;5120068;27;20031;-62
2023/12/23 09:17:29;;;;;;;4.70;1.30;;;;;;;;;;5121021;27;21193;-62
2023/12/23 09:19:56;;;;;;;5.28;2.13;;;;;;;;;;5103016;27;20031;-62
2023/12/23 09:22:22;;;;;;;5.43;2.13;;;;;;;;;;5120627;27;20050;-62
2023/12/23 09:24:48;;;;;;;4.15;2.03;;;;;;;;;;5121979;27;20043;-62
2023/12/23 09:27:14;;;;;;;5.93;3.03;;;;;;;;;;5097831;27;20077;-62
2023/12/23 09:29:40;;;;;;;6.18;2.30;;;;;;;;;;5094139;28;20044;-62
2023/12/23 09:32:07;;;;;;;5.15;2.17;;;;;;;;;;5099150;28;20044;-62
2023/12/23 09:34:33;;;;;;;4.10;1.95;;;;;;;;;;5098126;28;20056;-62
2023/12/23 09:37:00;;;;;;;3.40;1.40;;;;;;;;;;5098376;28;20460;-62
2023/12/23 09:39:26;;;;;;;3.10;1.30;;;;;;;;;;5095435;27;20056;-62
2023/12/23 09:41:54;;;;;;;4.00;1.70;;;;;;;;;;5095143;28;20050;-62
2023/12/23 09:44:21;;;;;;;3.00;1.30;;;;;;;;;;5092374;27;20398;-62
2023/12/23 09:46:47;;;;;;;5.28;1.27;;;;;;;;;;5097965;28;20078;-62
2023/12/23 09:49:13;;;;;;;4.65;1.13;;;;;;;;;;5090944;28;20080;-62
2023/12/23 09:51:40;;;;;;;2.75;1.20;;;;;;;;;;5097732;28;20120;-62
2023/12/23 09:54:07;;;;;;;2.17;1.08;;;;;;;;;;5097882;28;20034;-62
2023/12/23 09:56:35;;;;;;;4.13;1.23;;;;;;;;;;5099385;27;20032;-62
2023/12/23 09:59:01;;;;;;;3.38;1.40;;;;;;;;;;5090792;28;20501;-62
2023/12/23 10:01:27;;;;;;;2.20;1.00;;;;;;;;;;5088291;28;20083;-62
2023/12/23 10:03:53;;;;;;;2.88;1.20;;;;;;;;;;5090039;28;20051;-62
2023/12/23 10:06:20;;;;;;;2.83;1.10;;;;;;;;;;5094349;28;20050;-62
2023/12/23 10:08:48;;;;;;;4.72;1.90;;;;;;;;;;5092787;28;20407;-62
2023/12/23 10:11:14;;;;;;;3.92;1.90;;;;;;;;;;5099370;28;20491;-62
2023/12/23 10:13:40;;;;;;;3.70;1.92;;;;;;;;;;5091153;28;20051;-62
2023/12/23 10:16:08;;;;;;;5.15;1.80;;;;;;;;;;5089346;28;20040;-62
2023/12/23 10:18:34;;;;;;;4.43;2.15;;;;;;;;;;5096808;28;20176;-62
2023/12/23 10:21:01;;;;;;;4.63;1.67;;;;;;;;;;5094167;28;20111;-62
2023/12/23 10:23:29;;;;;;;3.70;1.92;;;;;;;;;;5099351;28;20051;-62
2023/12/23 10:25:55;;;;;;;4.60;2.03;;;;;;;;;;5099261;28;20052;-62
2023/12/23 10:28:23;;;;;;;4.45;2.58;;;;;;;;;;5098755;27;20043;-62
2023/12/23 10:30:50;;;;;;;4.65;2.80;;;;;;;;;;5098740;27;20092;-62
2023/12/23 10:33:18;;;;;;;5.88;2.25;;;;;;;;;;5115709;27;20130;-62
2023/12/23 10:35:46;;;;;;;4.80;2.60;;;;;;;;;;5100861;27;20069;-62
2023/12/23 10:38:16;;;;;;;4.60;2.58;;;;;;;;;;5116528;27;20043;-62
2023/12/23 10:40:43;;;;;;;5.85;2.50;;;;;;;;;;5100602;28;20356;-62
2023/12/23 10:43:10;;;;;;;5.30;3.00;;;;;;;;;;5116079;27;20035;-62
2023/12/23 10:45:37;;;;;;;5.18;2.55;;;;;;;;;;5116888;27;20039;-62
2023/12/23 10:48:04;;;;;;;5.75;3.03;;;;;;;;;;5116961;27;20051;-62
2023/12/23 10:50:31;;;;;;;6.57;3.33;;;;;;;;;;5096970;27;20047;-62
2023/12/23 10:52:58;;;;;;;8.70;4.03;;;;;;;;;;5117739;27;20039;-62
2023/12/23 10:55:24;;;;;;;6.80;3.28;;;;;;;;;;5118075;27;20065;-62
2023/12/23 10:57:52;;;;;;;8.85;4.50;;;;;;;;;;5112718;27;20478;-62
2023/12/23 11:00:18;;;;;;;11.13;5.13;;;;;;;;;;5116129;27;20327;-62
2023/12/23 11:02:45;;;;;;;12.52;6.25;;;;;;;;;;5117102;27;20092;-62
2023/12/23 11:05:12;;;;;;;11.25;5.97;;;;;;;;;;5096637;28;20079;-62
2023/12/23 11:07:42;;;;;;;9.55;5.30;;;;;;;;;;5082854;28;20367;-62
2023/12/23 11:10:09;;;;;;;8.93;4.30;;;;;;;;;;5117096;27;20093;-61
2023/12/23 11:12:35;;;;;;;9.52;4.78;;;;;;;;;;5117046;28;20053;-62
2023/12/23 11:15:02;;;;;;;10.88;4.97;;;;;;;;;;5098716;28;20058;-62
2023/12/23 11:17:29;;;;;;;7.22;3.97;;;;;;;;;;5098562;28;20433;-62
2023/12/23 11:19:58;;;;;;;9.48;4.82;;;;;;;;;;5115700;27;20134;-62
2023/12/23 11:22:25;;;;;;;11.15;5.13;;;;;;;;;;5097917;28;20086;-62
2023/12/23 11:24:51;;;;;;;11.77;5.25;;;;;;;;;;5117836;28;20058;-62
2023/12/23 11:27:31;;;;;;;8.75;4.72;;;;;;;;;;5118025;28;20163;-62
2023/12/23 11:30:00;;;;;;;10.43;4.60;;;;;;;;;;5114201;27;20126;-62
2023/12/23 11:32:26;;;;;;;9.43;4.65;;;;;;;;;;5100723;27;20082;-63
2023/12/23 11:34:52;;;;;;;11.75;4.97;;;;;;;;;;5120494;27;20059;-62
2023/12/23 11:37:20;;;;;;;10.73;5.13;;;;;;;;;;5120471;27;20051;-62
2023/12/23 11:39:47;;;;;;;12.90;5.05;;;;;;;;;;5117654;27;20051;-63
2023/12/23 11:42:13;;;;;;;9.38;4.88;;;;;;;;;;5119051;27;20061;-62
2023/12/23 11:44:40;;;;;;;10.82;3.95;;;;;;;;;;5101957;27;20058;-62
2023/12/23 11:47:06;;;;;;;7.65;3.97;;;;;;;;;;5100644;27;20059;-62
2023/12/23 11:49:32;;;;;;;8.43;4.20;;;;;;;;;;5100411;27;20134;-64
2023/12/23 11:51:58;;;;;;;8.20;4.60;;;;;;;;;;5101439;27;20138;-62
2023/12/23 11:54:24;;;;;;;10.68;4.35;;;;;;;;;;5117756;27;20376;-62
2023/12/23 11:56:51;;;;;;;8.23;4.43;;;;;;;;;;5122425;27;20039;-62
2023/12/23 11:59:17;;;;;;;8.88;4.40;;;;;;;;;;5119736;27;20116;-62
2023/12/23 12:01:43;;;;;;;9.07;4.50;;;;;;;;;;5121386;27;20225;-62
2023/12/23 12:04:10;;;;;;;9.20;5.05;;;;;;;;;;5122975;27;20040;-62
2023/12/23 12:06:36;;;;;;;7.88;4.15;;;;;;;;;;5119749;27;20047;-62
2023/12/23 12:09:02;;;;;;;12.88;4.70;;;;;;;;;;5103142;27;20039;-62
2023/12/23 12:11:29;;;;;;;12.68;4.70;;;;;;;;;;5120446;27;20044;-62
2023/12/23 12:13:58;;;;;;;8.30;4.60;;;;;;;;;;5104357;27;20394;-62
2023/12/23 12:16:25;;;;;;;6.95;4.43;;;;;;;;;;5104156;27;20525;-62
2023/12/23 12:18:51;;;;;;;11.48;4.75;;;;;;;;;;5103124;27;20089;-62
2023/12/23 12:21:17;;;;;;;7.97;4.00;;;;;;;;;;5119329;27;20497;-62
2023/12/23 12:23:43;;;;;;;11.27;4.32;;;;;;;;;;5102507;27;20047;-62
2023/12/23 12:26:09;;;;;;;5.93;3.30;;;;;;;;;;5122045;27;20044;-62
2023/12/23 12:28:36;;;;;;;8.85;3.85;;;;;;;;;;5101475;27;20055;-62
2023/12/23 12:31:09;;;;;;;6.68;3.70;;;;;;;;;;5120485;27;20498;-62
2023/12/23 12:33:37;;;;;;;8.52;3.80;;;;;;;;;;5101988;27;20114;-62
2023/12/23 12:36:03;;;;;;;7.35;3.20;;;;;;;;;;5118561;27;20035;-62
2023/12/23 12:38:30;;;;;;;7.47;2.40;;;;;;;;;;5103930;27;20134;-62
2023/12/23 12:40:56;;;;;;;9.80;2.28;;;;;;;;;;5118491;27;20128;-62
2023/12/23 12:43:22;;;;;;;9.50;3.88;;;;;;;;;;5099766;27;20047;-62
2023/12/23 12:45:49;;;;;;;12.15;2.42;;;;;;;;;;5101997;27;20493;-62
2023/12/23 12:48:15;;;;;;;16.08;4.40;;;;;;;;;;5122797;27;20031;-62
2023/12/23 12:50:43;;;;;;;30.65;6.72;;;;;;;;;;5119421;27;20031;-62
2023/12/23 12:53:09;;;;;;;41.58;6.05;;;;;;;;;;5121929;27;20134;-62
2023/12/23 12:55:35;;;;;;;37.50;5.70;;;;;;;;;;5121561;27;20591;-62
2023/12/23 12:58:02;;;;;;;42.53;6.53;;;;;;;;;;5122748;27;20128;-62
2023/12/23 13:00:28;;;;;;;51.60;7.63;;;;;;;;;;5120977;27;20627;-62
2023/12/23 13:02:54;;;;;;;43.17;7.75;;;;;;;;;;5102438;27;20031;-62
2023/12/23 13:05:21;;;;;;;53.35;9.02;;;;;;;;;;5101247;27;20134;-62
2023/12/23 13:07:47;;;;;;;50.28;6.72;;;;;;;;;;5121932;27;20057;-62
2023/12/23 13:10:14;;;;;;;53.63;6.88;;;;;;;;;;5121888;27;20039;-62
2023/12/23 13:12:41;;;;;;;46.40;7.10;;;;;;;;;;5121762;27;20035;-62
2023/12/23 13:15:08;;;;;;;48.38;7.72;;;;;;;;;;5109362;27;20039;-62
2023/12/23 13:17:34;;;;;;;49.13;7.10;;;;;;;;;;5101867;27;20047;-62
2023/12/23 13:20:00;;;;;;;47.85;6.97;;;;;;;;;;5116445;27;20051;-62
2023/12/23 13:22:27;;;;;;;41.22;7.82;;;;;;;;;;5098041;27;20076;-62
2023/12/23 13:24:53;;;;;;;45.08;6.47;;;;;;;;;;5117551;27;20027;-61
2023/12/23 13:27:19;;;;;;;40.67;6.47;;;;;;;;;;5119620;27;20115;-62
2023/12/23 13:29:46;;;;;;;26.95;4.15;;;;;;;;;;5122306;27;20055;-62
2023/12/23 13:32:13;;;;;;;34.38;5.25;;;;;;;;;;5120822;27;20051;-62
2023/12/23 13:34:39;;;;;;;30.20;5.22;;;;;;;;;;5120332;27;20051;-62
2023/12/23 13:37:05;;;;;;;31.73;5.60;;;;;;;;;;5107538;27;20321;-62
2023/12/23 13:39:32;;;;;;;28.77;5.00;;;;;;;;;;5124240;27;20043;-62
2023/12/23 13:41:58;;;;;;;30.40;4.75;;;;;;;;;;5104650;27;20039;-62
2023/12/23 13:44:25;;;;;;;31.90;4.45;;;;;;;;;;5104503;27;20047;-62
2023/12/23 13:46:53;;;;;;;33.00;5.20;;;;;;;;;;5120002;27;20038;-62
2023/12/23 13:49:20;;;;;;;27.55;4.13;;;;;;;;;;5116896;27;20124;-62
2023/12/23 13:51:46;;;;;;;23.77;4.03;;;;;;;;;;5117354;27;20035;-63
2023/12/23 13:54:12;;;;;;;29.60;4.65;;;;;;;;;;5102196;27;20039;-63
2023/12/23 13:56:38;;;;;;;31.45;4.65;;;;;;;;;;5119798;27;20035;-63
2023/12/23 13:59:04;;;;;;;30.23;5.05;;;;;;;;;;5099309;27;20040;-63
2023/12/23 14:01:31;;;;;;;27.73;4.22;;;;;;;;;;5115957;27;20143;-63
2023/12/23 14:03:57;;;;;;;24.80;3.83;;;;;;;;;;5120332;27;20115;-63
2023/12/23 14:06:23;;;;;;;32.35;5.10;;;;;;;;;;5119398;27;20081;-63
2023/12/23 14:08:49;;;;;;;26.35;5.70;;;;;;;;;;5115111;27;20428;-63
2023/12/23 14:11:15;;;;;;;30.80;5.38;;;;;;;;;;5118513;27;20043;-61
2023/12/23 14:13:41;;;;;;;42.38;5.57;;;;;;;;;;5117405;27;20422;-62
2023/12/23 14:16:08;;;;;;;27.23;4.60;;;;;;;;;;5118736;27;20050;-62
2023/12/23 14:18:34;;;;;;;25.40;4.75;;;;;;;;;;5114089;27;20036;-62
2023/12/23 14:21:00;;;;;;;32.10;4.50;;;;;;;;;;5115317;27;20046;-62
2023/12/23 14:23:26;;;;;;;34.65;4.60;;;;;;;;;;5101834;27;20035;-62
2023/12/23 14:25:53;;;;;;;30.73;5.00;;;;;;;;;;5098080;27;20047;-63
2023/12/23 14:28:19;;;;;;;30.70;4.50;;;;;;;;;;5096610;27;20502;-62
2023/12/23 14:30:45;;;;;;;31.25;4.65;;;;;;;;;;5102989;27;20053;-62